Glendale, Arkansas
Current Conditions -  °F | °C
As of 12:53 AM on Monday 22 Dec 2014 (Local Time) from KPBF Reporting Station
Few Clouds Few Clouds  
Wind Chill:   Ceiling: Unl
Heat Index:   Visibility: 10mi
Dew Point:   Wind: 12mph
Humidity: 86%   Direction: 160°SSE
Pressure: 29.86"   Gusts: NA
Location:  33.924°N, 91.8685°W
Report Text: KPBF 220653Z AUTO 16010KT 10SM FEW070 08/06 A2986 RMK AO2 SLP109 T00780056
Loading
Personal Weather Stations






























Interactive Weather Map New forecast layout! Learn more

10-Day Weather Forecast

Advertisements
Track Severe Weather on mobile